Time;durP1;ratioP1;P1;durP2;ratioP2;P2;SDS_P1;SDS_P2;PMS_P1;PMS_P2;Temp;Humidity;BMP_temperature;BMP_pressure;BME280_temperature;BME280_humidity;BME280_pressure;Samples;Min_cycle;Max_cycle;Signal;HPM_P1;HPM_P2
2021/12/01 00:00:48;;;;;;;8.85;1.70;;;;;;;;;;5056465;28;20592;-80
2021/12/01 00:03:13;;;;;;;8.48;1.67;;;;;;;;;;5056588;28;20488;-80
2021/12/01 00:05:39;;;;;;;7.25;1.33;;;;;;;;;;5056126;28;20031;-80
2021/12/01 00:08:05;;;;;;;7.97;1.20;;;;;;;;;;5057844;28;20441;-80
2021/12/01 00:10:34;;;;;;;6.90;1.30;;;;;;;;;;5057698;28;20137;-80
2021/12/01 00:13:00;;;;;;;9.45;1.42;;;;;;;;;;5057925;28;20107;-80
2021/12/01 00:15:25;;;;;;;5.10;1.35;;;;;;;;;;5056278;28;20029;-79
2021/12/01 00:17:51;;;;;;;4.63;1.52;;;;;;;;;;5055925;28;20086;-80
2021/12/01 00:20:18;;;;;;;11.02;1.60;;;;;;;;;;5057221;28;20032;-81
2021/12/01 00:22:44;;;;;;;10.85;1.30;;;;;;;;;;5057746;28;20086;-80
2021/12/01 00:25:11;;;;;;;14.50;1.50;;;;;;;;;;5056954;28;20092;-80
2021/12/01 00:27:37;;;;;;;7.22;1.20;;;;;;;;;;5057089;28;20075;-79
2021/12/01 00:30:04;;;;;;;7.85;1.60;;;;;;;;;;5055602;28;20031;-79
2021/12/01 00:32:29;;;;;;;11.05;1.40;;;;;;;;;;5057548;28;20028;-80
2021/12/01 00:34:58;;;;;;;13.88;1.20;;;;;;;;;;5055926;28;20021;-80
2021/12/01 00:37:23;;;;;;;12.10;1.35;;;;;;;;;;5056570;28;20025;-80
2021/12/01 00:39:48;;;;;;;7.10;1.10;;;;;;;;;;5056366;28;20025;-80
2021/12/01 00:42:13;;;;;;;6.22;1.73;;;;;;;;;;5056715;28;20025;-79
2021/12/01 00:44:46;;;;;;;11.35;1.40;;;;;;;;;;5056772;28;20064;-81
2021/12/01 00:47:13;;;;;;;10.70;1.33;;;;;;;;;;5056767;28;20457;-80
2021/12/01 00:49:38;;;;;;;6.60;1.35;;;;;;;;;;5055915;28;20021;-81
2021/12/01 00:52:03;;;;;;;7.53;1.20;;;;;;;;;;5056533;28;20359;-80
2021/12/01 00:54:29;;;;;;;7.90;1.40;;;;;;;;;;5056171;28;20052;-81
2021/12/01 00:56:54;;;;;;;7.80;1.50;;;;;;;;;;5056463;28;20382;-80
2021/12/01 00:59:19;;;;;;;6.88;1.50;;;;;;;;;;5055095;28;20029;-81
2021/12/01 01:01:46;;;;;;;6.40;1.20;;;;;;;;;;5056261;28;20025;-80
2021/12/01 01:04:11;;;;;;;7.63;1.13;;;;;;;;;;5054091;28;20033;-81
2021/12/01 01:06:37;;;;;;;5.57;1.30;;;;;;;;;;5056064;28;20021;-81
2021/12/01 01:09:06;;;;;;;7.57;1.35;;;;;;;;;;5055831;28;20462;-81
2021/12/01 01:17:06;;;;;;;6.30;1.20;;;;;;;;;;5055634;28;20032;-81
2021/12/01 01:19:32;;;;;;;10.52;1.88;;;;;;;;;;5055932;28;20465;-81
2021/12/01 01:21:59;;;;;;;5.57;1.00;;;;;;;;;;5055847;28;20075;-81
2021/12/01 01:24:24;;;;;;;4.90;1.00;;;;;;;;;;5056924;28;20115;-81
2021/12/01 01:26:50;;;;;;;6.63;1.10;;;;;;;;;;5055865;28;20036;-81
2021/12/01 01:29:20;;;;;;;5.47;1.50;;;;;;;;;;5056690;28;20084;-79
2021/12/01 01:31:46;;;;;;;4.78;1.20;;;;;;;;;;5055442;28;20036;-80
2021/12/01 01:34:11;;;;;;;8.00;0.95;;;;;;;;;;5055015;28;20033;-79
2021/12/01 01:36:36;;;;;;;5.78;1.15;;;;;;;;;;5055282;28;20037;-80
2021/12/01 01:39:03;;;;;;;7.95;1.02;;;;;;;;;;5057198;28;20065;-80
2021/12/01 01:41:28;;;;;;;5.40;0.88;;;;;;;;;;5056726;28;20071;-81
2021/12/01 01:43:54;;;;;;;7.47;1.10;;;;;;;;;;5055366;28;20021;-80
2021/12/01 01:46:19;;;;;;;4.07;0.82;;;;;;;;;;5055577;28;20421;-79
2021/12/01 01:48:53;;;;;;;3.25;0.90;;;;;;;;;;5054187;28;20025;-80
2021/12/01 01:51:20;;;;;;;;;;;;;;;;;;5056116;28;20032;-80
2021/12/01 01:53:47;;;;;;;8.25;0.90;;;;;;;;;;5054931;28;19915;-80
2021/12/01 01:56:13;;;;;;;6.00;1.13;;;;;;;;;;5055756;28;20020;-80
2021/12/01 01:58:38;;;;;;;6.03;0.80;;;;;;;;;;5055848;28;20029;-81
2021/12/01 02:01:08;;;;;;;5.25;0.98;;;;;;;;;;5054894;28;20033;-81
2021/12/01 02:03:42;;;;;;;4.93;0.90;;;;;;;;;;5056011;28;20108;-80
2021/12/01 02:06:09;;;;;;;4.18;1.05;;;;;;;;;;5054377;28;20028;-81
2021/12/01 02:08:37;;;;;;;8.25;1.10;;;;;;;;;;5056513;28;20024;-81
2021/12/01 02:11:05;;;;;;;4.82;1.00;;;;;;;;;;5056186;28;20052;-80
2021/12/01 02:13:31;;;;;;;4.18;0.88;;;;;;;;;;5056040;28;20377;-81
2021/12/01 02:16:00;;;;;;;3.03;0.93;;;;;;;;;;5054486;28;20020;-81
2021/12/01 02:18:26;;;;;;;2.50;0.82;;;;;;;;;;5054772;28;20501;-80
2021/12/01 02:21:13;;;;;;;8.93;1.50;;;;;;;;;;5055936;28;20059;-80
2021/12/01 02:23:42;;;;;;;7.45;0.60;;;;;;;;;;5054509;28;20037;-80
2021/12/01 02:26:09;;;;;;;6.30;1.13;;;;;;;;;;5054582;28;20047;-81
2021/12/01 02:28:35;;;;;;;5.30;0.70;;;;;;;;;;5055117;28;20116;-81
2021/12/01 02:31:01;;;;;;;3.08;1.00;;;;;;;;;;5056682;28;20047;-80
2021/12/01 02:33:27;;;;;;;5.32;0.90;;;;;;;;;;5056209;28;20116;-80
2021/12/01 02:35:55;;;;;;;4.47;0.80;;;;;;;;;;5055851;28;20024;-80
2021/12/01 02:38:21;;;;;;;2.55;1.05;;;;;;;;;;5055964;28;20433;-79
2021/12/01 02:40:47;;;;;;;3.95;1.27;;;;;;;;;;5057023;28;20055;-80
2021/12/01 02:43:13;;;;;;;5.35;0.88;;;;;;;;;;5056233;28;20021;-80
2021/12/01 02:45:41;;;;;;;4.55;0.90;;;;;;;;;;5054745;28;20474;-79
2021/12/01 02:48:11;;;;;;;6.25;0.80;;;;;;;;;;5057478;28;20024;-80
2021/12/01 02:50:36;;;;;;;6.38;1.02;;;;;;;;;;5058274;28;20017;-80
2021/12/01 02:53:02;;;;;;;4.38;1.00;;;;;;;;;;5058991;28;20020;-80
2021/12/01 02:55:33;;;;;;;4.63;0.90;;;;;;;;;;5059410;28;20025;-80
2021/12/01 02:57:59;;;;;;;3.63;1.20;;;;;;;;;;5057887;28;20025;-80
2021/12/01 03:00:25;;;;;;;3.25;0.88;;;;;;;;;;5058178;28;20032;-80
2021/12/01 03:02:52;;;;;;;4.80;1.10;;;;;;;;;;5059955;28;20021;-80
2021/12/01 03:05:20;;;;;;;5.68;0.85;;;;;;;;;;5059695;28;20024;-80
2021/12/01 03:07:45;;;;;;;4.28;0.85;;;;;;;;;;5059753;28;20035;-81
2021/12/01 03:10:12;;;;;;;7.32;0.90;;;;;;;;;;5059789;28;20100;-80
2021/12/01 03:12:39;;;;;;;2.58;1.00;;;;;;;;;;5060624;28;20033;-80
2021/12/01 03:15:08;;;;;;;8.15;1.40;;;;;;;;;;5059110;28;20532;-81
2021/12/01 03:17:35;;;;;;;7.28;1.08;;;;;;;;;;5060238;28;20111;-81
2021/12/01 03:20:01;;;;;;;8.43;1.20;;;;;;;;;;5058273;28;20547;-80
2021/12/01 03:22:26;;;;;;;6.65;1.30;;;;;;;;;;5058658;28;20115;-80
2021/12/01 03:24:52;;;;;;;6.30;1.10;;;;;;;;;;5057236;28;20027;-80
2021/12/01 03:27:18;;;;;;;4.45;1.20;;;;;;;;;;5058045;28;20036;-80
2021/12/01 03:29:48;;;;;;;4.10;1.10;;;;;;;;;;5057000;28;20029;-80
2021/12/01 03:32:17;;;;;;;7.13;1.40;;;;;;;;;;5058007;28;20021;-80
2021/12/01 03:34:46;;;;;;;8.68;1.20;;;;;;;;;;5059059;28;20096;-80
2021/12/01 03:37:14;;;;;;;6.43;1.10;;;;;;;;;;5057586;28;20024;-80
2021/12/01 03:39:39;;;;;;;7.47;1.38;;;;;;;;;;5056543;28;20025;-80
2021/12/01 03:42:05;;;;;;;4.55;1.08;;;;;;;;;;5057389;28;20074;-80
2021/12/01 03:44:32;;;;;;;3.08;1.10;;;;;;;;;;5057850;28;20032;-80
2021/12/01 03:46:57;;;;;;;7.70;1.38;;;;;;;;;;5057988;28;20508;-80
2021/12/01 03:49:25;;;;;;;4.22;0.90;;;;;;;;;;5058419;28;20110;-81
2021/12/01 03:51:54;;;;;;;7.15;1.10;;;;;;;;;;5059969;28;20027;-80
2021/12/01 03:54:19;;;;;;;4.53;1.08;;;;;;;;;;5059173;28;20033;-81
2021/12/01 03:56:44;;;;;;;6.05;1.05;;;;;;;;;;5058731;28;20057;-81
2021/12/01 03:59:10;;;;;;;4.50;1.10;;;;;;;;;;5057919;28;20033;-81
2021/12/01 04:01:38;;;;;;;6.00;1.55;;;;;;;;;;5058953;28;20025;-80
2021/12/01 04:04:06;;;;;;;5.68;1.30;;;;;;;;;;5059997;28;20063;-80
2021/12/01 04:06:33;;;;;;;6.43;1.02;;;;;;;;;;5058393;28;20393;-80
2021/12/01 04:09:05;;;;;;;4.00;1.23;;;;;;;;;;5059037;28;20017;-79
2021/12/01 04:11:32;;;;;;;4.95;1.75;;;;;;;;;;5059308;28;20021;-81
2021/12/01 04:14:08;;;;;;;7.43;1.70;;;;;;;;;;5059352;28;20082;-83
2021/12/01 04:16:34;;;;;;;4.45;1.25;;;;;;;;;;5057769;28;20102;-82
2021/12/01 04:19:02;;;;;;;6.90;1.25;;;;;;;;;;5056639;28;20025;-81
2021/12/01 04:21:36;;;;;;;4.53;1.30;;;;;;;;;;5057410;28;20051;-83
2021/12/01 04:24:05;;;;;;;6.15;1.25;;;;;;;;;;5055773;28;20029;-81
2021/12/01 04:26:35;;;;;;;4.15;1.20;;;;;;;;;;5056813;28;20037;-80
2021/12/01 04:29:05;;;;;;;5.40;1.30;;;;;;;;;;5056137;28;20514;-79
2021/12/01 04:31:40;;;;;;;4.78;1.20;;;;;;;;;;5055859;28;20029;-80
2021/12/01 04:34:11;;;;;;;2.72;0.93;;;;;;;;;;5056997;28;20032;-80
2021/12/01 04:36:42;;;;;;;2.45;1.00;;;;;;;;;;5056994;28;20024;-80
2021/12/01 04:39:14;;;;;;;4.10;1.17;;;;;;;;;;5055943;28;20021;-80
2021/12/01 04:41:58;;;;;;;3.40;1.00;;;;;;;;;;5055122;28;20401;-81
2021/12/01 04:44:29;;;;;;;5.80;1.25;;;;;;;;;;5055552;28;20501;-80
2021/12/01 04:46:56;;;;;;;1.40;0.90;;;;;;;;;;5055374;28;20129;-80
2021/12/01 04:49:24;;;;;;;2.55;1.08;;;;;;;;;;5055375;28;20437;-80
2021/12/01 04:51:55;;;;;;;3.05;1.00;;;;;;;;;;5055104;28;20111;-81
2021/12/01 04:54:28;;;;;;;2.97;1.00;;;;;;;;;;5055966;28;20033;-80
2021/12/01 04:57:02;;;;;;;3.53;1.10;;;;;;;;;;5057926;28;20021;-80
2021/12/01 04:59:33;;;;;;;6.18;1.13;;;;;;;;;;5057562;28;20473;-80
2021/12/01 05:02:08;;;;;;;2.90;0.98;;;;;;;;;;5057910;28;20029;-81
2021/12/01 05:04:49;;;;;;;3.75;1.20;;;;;;;;;;5055640;28;20029;-81
2021/12/01 05:07:17;;;;;;;5.30;1.45;;;;;;;;;;5054882;28;20051;-81
2021/12/01 05:09:59;;;;;;;1.38;1.08;;;;;;;;;;5055549;28;20029;-81
2021/12/01 05:12:25;;;;;;;2.53;1.20;;;;;;;;;;5055745;28;20021;-81
2021/12/01 05:14:53;;;;;;;3.03;1.40;;;;;;;;;;5055495;28;20029;-81
2021/12/01 05:17:24;;;;;;;3.28;1.20;;;;;;;;;;5055304;28;20017;-81
2021/12/01 05:19:57;;;;;;;2.85;1.40;;;;;;;;;;5055637;28;20029;-80
2021/12/01 05:22:35;;;;;;;2.92;1.60;;;;;;;;;;5055160;28;20035;-81
2021/12/01 05:25:11;;;;;;;3.88;1.40;;;;;;;;;;5054484;28;20029;-81
2021/12/01 05:28:09;;;;;;;3.22;1.33;;;;;;;;;;5054613;28;20032;-80
2021/12/01 05:30:35;;;;;;;5.35;1.30;;;;;;;;;;5053958;28;20047;-81
2021/12/01 05:33:12;;;;;;;2.92;1.35;;;;;;;;;;5055589;28;20025;-80
2021/12/01 05:35:50;;;;;;;4.20;1.42;;;;;;;;;;5054454;28;20048;-80
2021/12/01 05:38:16;;;;;;;2.92;1.27;;;;;;;;;;5056685;28;20438;-80
2021/12/01 05:40:50;;;;;;;2.70;1.40;;;;;;;;;;5053685;28;20044;-80
2021/12/01 05:43:34;;;;;;;1.92;1.33;;;;;;;;;;5054994;28;20029;-80
2021/12/01 05:46:16;;;;;;;6.28;1.55;;;;;;;;;;5053349;28;20115;-80
2021/12/01 05:48:51;;;;;;;2.95;1.27;;;;;;;;;;5053941;28;20041;-81
2021/12/01 05:51:29;;;;;;;2.22;1.45;;;;;;;;;;5054207;28;20560;-81
2021/12/01 05:54:03;;;;;;;2.38;1.50;;;;;;;;;;5056585;28;20451;-80
2021/12/01 05:56:36;;;;;;;3.10;1.50;;;;;;;;;;5056179;28;20025;-80
2021/12/01 05:59:02;;;;;;;3.00;1.55;;;;;;;;;;5059232;28;20064;-81
2021/12/01 06:01:33;;;;;;;2.20;1.35;;;;;;;;;;5058268;28;20037;-80
2021/12/01 06:04:11;;;;;;;4.47;1.50;;;;;;;;;;5059939;28;20028;-79
2021/12/01 06:06:47;;;;;;;3.33;1.33;;;;;;;;;;5060616;28;20021;-80
2021/12/01 06:09:20;;;;;;;4.07;1.70;;;;;;;;;;5059924;28;20029;-80
2021/12/01 06:11:55;;;;;;;3.50;1.55;;;;;;;;;;5059056;28;20029;-79
2021/12/01 06:14:38;;;;;;;;;;;;;;;;;;;;;
2021/12/01 06:17:10;;;;;;;3.10;1.73;;;;;;;;;;5059624;28;20077;-80
2021/12/01 06:19:38;;;;;;;3.15;1.35;;;;;;;;;;5058646;28;20094;-80
2021/12/01 06:22:34;;;;;;;3.60;1.70;;;;;;;;;;5058986;28;20513;-79
2021/12/01 06:28:02;;;;;;;2.30;1.40;;;;;;;;;;5062962;28;20393;-80
2021/12/01 06:30:48;;;;;;;4.15;1.90;;;;;;;;;;5061303;28;20043;-80
2021/12/01 06:33:35;;;;;;;3.75;1.73;;;;;;;;;;5058236;28;20028;-80
2021/12/01 06:36:08;;;;;;;2.72;1.90;;;;;;;;;;5057240;28;20021;-80
2021/12/01 06:38:39;;;;;;;5.63;2.50;;;;;;;;;;5057401;28;20453;-80
2021/12/01 06:41:36;;;;;;;2.85;1.70;;;;;;;;;;5057181;28;20029;-80
2021/12/01 06:44:20;;;;;;;2.50;1.50;;;;;;;;;;5043551;28;20498;-79
2021/12/01 06:46:51;;;;;;;;;;;;;;;;;;5057287;28;20463;-79
2021/12/01 06:49:17;;;;;;;2.47;1.17;;;;;;;;;;5057184;28;19935;-79
2021/12/01 06:51:55;;;;;;;1.08;0.93;;;;;;;;;;5056505;28;20469;-80
2021/12/01 06:54:23;;;;;;;4.18;1.20;;;;;;;;;;5057707;28;20021;-81
2021/12/01 06:57:04;;;;;;;4.68;1.30;;;;;;;;;;5056660;28;20032;-80
2021/12/01 07:00:25;;;;;;;4.53;1.70;;;;;;;;;;5058139;28;20086;-81
2021/12/01 07:03:11;;;;;;;2.33;1.25;;;;;;;;;;5054684;28;20033;-79
2021/12/01 07:06:19;;;;;;;9.13;1.70;;;;;;;;;;5057681;28;20021;-78
2021/12/01 07:09:00;;;;;;;0.95;0.70;;;;;;;;;;5057847;28;20078;-80
2021/12/01 07:11:54;;;;;;;;;;;;;;;;;;;;;
2021/12/01 07:15:10;;;;;;;;;;;;;;;;;;;;;
2021/12/01 07:21:37;;;;;;;;;;;;;;;;;;;;;
2021/12/01 07:24:21;;;;;;;2.35;1.17;;;;;;;;;;5058781;28;20541;-79
2021/12/01 07:26:57;;;;;;;6.55;1.27;;;;;;;;;;5057622;28;20462;-82
2021/12/01 07:29:30;;;;;;;3.00;1.10;;;;;;;;;;5058437;28;20056;-81
2021/12/01 07:32:55;;;;;;;;;;;;;;;;;;;;;
2021/12/01 07:36:12;;;;;;;;;;;;;;;;;;;;;
2021/12/01 07:42:05;;;;;;;5.00;2.65;;;;;;;;;;5056237;28;20135;-76
2021/12/01 07:44:31;;;;;;;2.55;1.40;;;;;;;;;;5054876;28;20041;-76
2021/12/01 07:46:56;;;;;;;2.40;1.70;;;;;;;;;;5054915;28;20036;-77
2021/12/01 07:49:24;;;;;;;1.75;1.05;;;;;;;;;;5054915;28;20021;-78
2021/12/01 07:51:49;;;;;;;2.53;1.20;;;;;;;;;;5054694;28;20036;-77
2021/12/01 07:54:15;;;;;;;1.35;1.00;;;;;;;;;;5054752;28;20051;-77
2021/12/01 07:56:41;;;;;;;1.83;1.20;;;;;;;;;;5054586;28;20100;-77
2021/12/01 07:59:06;;;;;;;2.92;1.25;;;;;;;;;;5053194;28;20510;-77
2021/12/01 08:01:31;;;;;;;1.63;0.82;;;;;;;;;;5053108;28;20025;-76
2021/12/01 08:03:56;;;;;;;1.83;0.82;;;;;;;;;;5054476;28;20421;-76
2021/12/01 08:06:22;;;;;;;2.33;1.00;;;;;;;;;;5054609;28;20441;-77
2021/12/01 08:08:47;;;;;;;1.23;0.98;;;;;;;;;;5054983;28;20104;-76
2021/12/01 08:11:13;;;;;;;4.53;1.30;;;;;;;;;;5054522;28;20447;-76
2021/12/01 08:13:38;;;;;;;2.25;1.40;;;;;;;;;;5054319;28;20027;-75
2021/12/01 08:16:04;;;;;;;8.38;1.40;;;;;;;;;;5054499;28;20067;-78
2021/12/01 08:18:29;;;;;;;4.38;3.90;;;;;;;;;;5056870;28;20124;-80
2021/12/01 08:20:54;;;;;;;3.42;3.00;;;;;;;;;;5058037;28;20497;-80
2021/12/01 08:23:29;;;;;;;1.85;1.50;;;;;;;;;;5059075;28;20052;-81
2021/12/01 08:25:54;;;;;;;3.10;1.15;;;;;;;;;;5059629;28;20159;-81
2021/12/01 08:28:19;;;;;;;1.55;1.02;;;;;;;;;;5057271;28;20017;-79
2021/12/01 08:30:45;;;;;;;2.00;1.08;;;;;;;;;;5058851;28;20021;-79
2021/12/01 08:33:10;;;;;;;2.70;1.10;;;;;;;;;;5058762;28;20021;-80
2021/12/01 08:35:35;;;;;;;2.75;0.82;;;;;;;;;;5057704;28;20532;-82
2021/12/01 08:38:00;;;;;;;3.63;1.13;;;;;;;;;;5055467;28;20021;-80
2021/12/01 08:40:27;;;;;;;4.50;1.10;;;;;;;;;;5054914;28;20552;-79
2021/12/01 08:42:53;;;;;;;1.35;0.93;;;;;;;;;;5056013;28;20021;-79
2021/12/01 08:45:23;;;;;;;1.25;0.90;;;;;;;;;;5053590;28;20401;-81
2021/12/01 08:47:49;;;;;;;1.63;1.27;;;;;;;;;;5054072;28;20033;-78
2021/12/01 10:22:09;;;;;;;;;;;;;;;;;;;;;
2021/12/01 10:25:51;;;;;;;;;;;;;;;;;;;;;
2021/12/01 11:51:10;;;;;;;;;;;;;;;;;;;;;
2021/12/01 12:04:05;;;;;;;0.63;0.63;;;;;;;;;;4978670;28;20054;-80
2021/12/01 12:07:36;;;;;;;;;;;;;;;;;;;;;
2021/12/01 12:11:02;;;;;;;0.75;0.57;;;;;;;;;;4950151;28;20031;-82
2021/12/01 12:24:52;;;;;;;1.60;1.10;;;;;;;;;;4918547;29;20043;-81
2021/12/01 12:31:54;;;;;;;;;;;;;;;;;;;;;
2021/12/01 13:54:52;;;;;;;0.50;0.47;;;;;;;;;;5014654;28;20112;-81
2021/12/01 14:01:44;;;;;;;0.50;0.50;;;;;;;;;;4974977;28;20069;-80
2021/12/01 14:11:40;;;;;;;;;;;;;;;;;;;;;
2021/12/01 14:28:24;;;;;;;1.20;0.70;;;;;;;;;;4860301;29;20033;-81
2021/12/01 15:06:47;;;;;;;;;;;;;;;;;;;;;
2021/12/01 15:27:02;;;;;;;1.08;0.85;;;;;;;;;;4873008;29;20491;-80
2021/12/01 15:41:44;;;;;;;;;;;;;;;;;;;;;
2021/12/01 16:23:16;;;;;;;;;;;;;;;;;;;;;
2021/12/01 16:40:09;;;;;;;;;;;;;;;;;;;;;
2021/12/01 16:47:00;;;;;;;1.63;0.40;;;;;;;;;;4821642;29;20031;-79
2021/12/01 17:38:05;;;;;;;;;;;;;;;;;;;;;
2021/12/01 17:59:06;;;;;;;1.13;0.90;;;;;;;;;;4809341;29;20046;-81
2021/12/01 18:02:32;;;;;;;;;;;;;;;;;;;;;
2021/12/01 18:16:29;;;;;;;1.85;1.10;;;;;;;;;;4845116;29;20044;-82
2021/12/01 18:23:04;;;;;;;;;;;;;;;;;;;;;
2021/12/01 18:42:49;;;;;;;0.82;0.63;;;;;;;;;;4964466;28;20027;-82
2021/12/01 19:16:26;;;;;;;0.82;0.70;;;;;;;;;;5216322;22;20053;-81
2021/12/01 19:19:13;;;;;;;0.47;0.47;;;;;;;;;;5040178;28;20044;-81
2021/12/01 19:29:26;;;;;;;;;;;;;;;;;;;;;
2021/12/01 19:48:07;;;;;;;;;;;;;;;;;;;;;
2021/12/01 20:01:47;;;;;;;0.32;0.32;;;;;;;;;;4867588;29;20514;-81
2021/12/01 20:04:13;;;;;;;0.82;0.43;;;;;;;;;;4881047;29;20055;-80
2021/12/01 20:18:43;;;;;;;0.93;0.70;;;;;;;;;;4867518;29;20149;-80
2021/12/01 20:25:59;;;;;;;;;;;;;;;;;;;;;
2021/12/01 20:32:04;;;;;;;;;;;;;;;;;;;;;
2021/12/01 20:35:40;;;;;;;;;;;;;;;;;;;;;
2021/12/01 20:45:17;;;;;;;0.35;0.35;;;;;;;;;;4861493;29;20032;-81
2021/12/01 21:05:05;;;;;;;1.60;0.60;;;;;;;;;;4884307;29;20121;-81
2021/12/01 21:36:28;;;;;;;1.00;0.68;;;;;;;;;;4850958;29;20045;-81
2021/12/01 22:49:18;;;;;;;0.80;0.50;;;;;;;;;;4981012;28;20104;-83
2021/12/01 22:52:18;;;;;;;;;;;;;;;;;;;;;
2021/12/01 22:55:45;;;;;;;;;;;;;;;;;;;;;
2021/12/01 22:58:14;;;;;;;1.85;0.57;;;;;;;;;;4996971;28;20121;-82
2021/12/01 23:01:01;;;;;;;;;;;;;;;;;;;;;
2021/12/01 23:06:31;;;;;;;;;;;;;;;;;;;;;
2021/12/01 23:09:09;;;;;;;0.20;0.20;;;;;;;;;;4939193;29;20039;-82
2021/12/01 23:15:24;;;;;;;0.75;0.30;;;;;;;;;;5007953;28;20045;-81
2021/12/01 23:41:37;;;;;;;0.75;0.20;;;;;;;;;;1060303;26;20299;-83
2021/12/01 23:44:48;;;;;;;0.57;0.30;;;;;;;;;;5056968;28;20482;-82
2021/12/01 23:51:23;;;;;;;2.13;0.40;;;;;;;;;;5057276;28;20036;-82
2021/12/01 23:54:18;;;;;;;0.40;0.25;;;;;;;;;;4933733;28;20500;-80
2021/12/01 23:56:50;;;;;;;0.43;0.38;;;;;;;;;;5038952;28;20063;-81
2021/12/01 23:59:40;;;;;;;;;;;;;;;;;;;;;
